createdAt,value
2023-03-06T00:01:06.217Z,3.45
2023-03-06T00:03:33.784Z,1.55
2023-03-06T00:06:00.770Z,4.05
2023-03-06T00:08:28.102Z,1.80
2023-03-06T00:10:54.743Z,4.38
2023-03-06T00:13:21.187Z,1.17
2023-03-06T00:15:48.447Z,1.88
2023-03-06T00:18:14.987Z,2.17
2023-03-06T00:20:42.602Z,3.15
2023-03-06T00:23:09.416Z,2.00
2023-03-06T00:25:38.872Z,2.25
2023-03-06T00:30:31.699Z,2.28
2023-03-06T00:32:58.133Z,3.33
2023-03-06T00:35:24.554Z,1.48
2023-03-06T00:37:51.054Z,2.67
2023-03-06T00:40:18.196Z,2.30
2023-03-06T00:42:44.637Z,2.03
2023-03-06T00:45:11.451Z,2.08
2023-03-06T00:47:37.884Z,2.13
2023-03-06T00:50:04.987Z,1.48
2023-03-06T00:52:31.400Z,1.83
2023-03-06T00:54:57.899Z,1.20
2023-03-06T00:57:24.729Z,1.58
2023-03-06T00:59:51.046Z,5.30
2023-03-06T01:02:17.464Z,3.03
2023-03-06T01:04:43.899Z,2.10
2023-03-06T01:07:10.518Z,2.95
2023-03-06T01:09:36.950Z,1.80
2023-03-06T01:12:03.408Z,2.42
2023-03-06T01:14:31.209Z,1.30
2023-03-06T01:16:58.286Z,3.38
2023-03-06T01:19:24.897Z,1.90
2023-03-06T01:21:51.341Z,1.23
2023-03-06T01:24:17.810Z,2.20
2023-03-06T01:26:44.227Z,3.70
2023-03-06T01:29:10.595Z,3.83
2023-03-06T01:31:37.288Z,2.08
2023-03-06T01:34:04.340Z,2.83
2023-03-06T01:36:30.731Z,1.50
2023-03-06T01:38:57.177Z,1.80
2023-03-06T01:41:23.648Z,2.40
2023-03-06T01:43:50.299Z,0.93
2023-03-06T01:46:16.790Z,1.52
2023-03-06T01:48:43.994Z,0.85
2023-03-06T01:51:11.052Z,2.00
2023-03-06T01:53:38.620Z,3.60
2023-03-06T01:56:05.378Z,2.70
2023-03-06T01:58:31.819Z,1.63
2023-03-06T02:00:58.255Z,1.23
2023-03-06T02:03:26.542Z,1.77
2023-03-06T02:05:53.114Z,2.17
2023-03-06T02:08:21.661Z,3.70
2023-03-06T02:10:58.741Z,1.95
2023-03-06T02:13:25.206Z,1.33
2023-03-06T02:15:51.574Z,2.17
2023-03-06T02:18:17.942Z,1.27
2023-03-06T02:20:46.266Z,1.23
2023-03-06T02:23:31.528Z,1.90
2023-03-06T02:25:58.611Z,0.98
2023-03-06T02:28:25.218Z,3.45
2023-03-06T02:30:52.581Z,1.95
2023-03-06T02:33:21.257Z,2.15
2023-03-06T02:35:55.445Z,2.23
2023-03-06T02:38:23.851Z,2.33
2023-03-06T02:40:51.224Z,2.70
2023-03-06T02:43:20.266Z,1.48
2023-03-06T02:45:48.193Z,1.95
2023-03-06T02:48:15.415Z,1.40
2023-03-06T02:50:42.580Z,1.73
2023-03-06T02:53:09.765Z,1.90
2023-03-06T02:55:36.369Z,2.42
2023-03-06T02:58:03.461Z,1.80
2023-03-06T03:00:30.135Z,0.98
2023-03-06T03:02:56.815Z,1.83
2023-03-06T03:05:23.664Z,1.58
2023-03-06T03:07:50.128Z,2.10
2023-03-06T03:10:16.946Z,1.75
2023-03-06T03:12:43.314Z,1.35
2023-03-06T03:15:10.203Z,2.90
2023-03-06T03:17:37.263Z,1.90
2023-03-06T03:20:04.742Z,2.50
2023-03-06T03:22:31.532Z,2.70
2023-03-06T03:24:57.979Z,2.92
2023-03-06T03:27:24.367Z,1.70
2023-03-06T03:29:50.852Z,4.45
2023-03-06T03:32:17.258Z,3.47
2023-03-06T03:34:43.718Z,1.45
2023-03-06T03:37:10.231Z,2.78
2023-03-06T03:39:36.734Z,2.03
2023-03-06T03:42:03.522Z,2.28
2023-03-06T03:44:29.885Z,4.43
2023-03-06T03:46:56.293Z,1.73
2023-03-06T03:49:22.713Z,2.13
2023-03-06T03:51:49.146Z,2.83
2023-03-06T03:54:15.498Z,3.75
2023-03-06T03:56:42.151Z,1.55
2023-03-06T03:59:08.705Z,1.45
2023-03-06T04:01:35.094Z,1.25
2023-03-06T04:04:01.489Z,1.40
2023-03-06T04:06:27.976Z,0.68
2023-03-06T04:08:54.381Z,2.05
2023-03-06T04:11:20.802Z,3.28
2023-03-06T04:13:47.185Z,2.30
2023-03-06T04:16:13.537Z,2.13
2023-03-06T04:18:40.047Z,1.80
2023-03-06T04:21:06.754Z,1.10
2023-03-06T04:23:33.118Z,2.50
2023-03-06T04:25:59.611Z,1.20
2023-03-06T04:28:26.249Z,1.60
2023-03-06T04:30:52.646Z,1.70
2023-03-06T04:33:19.080Z,2.42
2023-03-06T04:35:45.466Z,2.58
2023-03-06T04:38:11.925Z,1.23
2023-03-06T04:40:38.343Z,2.05
2023-03-06T04:43:05.267Z,0.90
2023-03-06T04:45:32.119Z,2.60
2023-03-06T04:47:59.116Z,0.70
2023-03-06T04:50:25.906Z,1.40
2023-03-06T04:52:52.316Z,1.15
2023-03-06T04:55:19.112Z,1.05
2023-03-06T04:57:46.307Z,1.70
2023-03-06T05:00:17.328Z,1.60
2023-03-06T05:02:44.287Z,1.70
2023-03-06T05:05:11.565Z,2.03
2023-03-06T05:07:38.330Z,4.57
2023-03-06T05:10:04.957Z,1.50
2023-03-06T05:12:31.329Z,1.80
2023-03-06T05:15:00.121Z,3.88
2023-03-06T05:17:26.616Z,0.98
2023-03-06T05:19:53.093Z,1.08
2023-03-06T05:22:19.669Z,2.10
2023-03-06T05:24:46.082Z,1.38
2023-03-06T05:27:12.463Z,1.77
2023-03-06T05:29:38.833Z,1.58
2023-03-06T05:32:05.529Z,2.28
2023-03-06T05:34:31.994Z,2.75
2023-03-06T05:36:59.057Z,1.45
2023-03-06T05:39:25.429Z,1.75
2023-03-06T05:41:51.886Z,2.05
2023-03-06T05:44:18.304Z,3.05
2023-03-06T05:46:44.731Z,1.77
2023-03-06T05:49:11.249Z,3.72
2023-03-06T05:51:37.757Z,1.02
2023-03-06T05:54:04.192Z,1.70
2023-03-06T05:56:30.672Z,3.55
2023-03-06T05:58:57.007Z,1.63
2023-03-06T06:01:25.334Z,1.65
2023-03-06T06:03:51.972Z,0.67
2023-03-06T06:06:18.463Z,1.75
2023-03-06T06:08:44.939Z,4.30
2023-03-06T06:11:12.485Z,1.45
2023-03-06T06:13:39.417Z,2.28
2023-03-06T06:16:13.062Z,1.95
2023-03-06T06:18:41.295Z,2.45
2023-03-06T06:21:08.717Z,2.97
2023-03-06T06:23:35.322Z,1.77
2023-03-06T06:26:03.307Z,3.13
2023-03-06T06:28:30.130Z,1.23
2023-03-06T06:30:57.009Z,3.17
2023-03-06T06:33:23.840Z,1.40
2023-03-06T06:35:50.517Z,2.78
2023-03-06T06:38:17.567Z,1.15
2023-03-06T06:40:45.651Z,4.90
2023-03-06T06:43:13.427Z,1.88
2023-03-06T06:45:39.875Z,3.20
2023-03-06T06:48:09.917Z,1.55
2023-03-06T06:50:36.395Z,4.22
2023-03-06T06:53:02.814Z,2.15
2023-03-06T06:55:29.420Z,4.18
2023-03-06T06:57:55.788Z,4.25
2023-03-06T07:00:22.486Z,2.15
2023-03-06T07:02:49.355Z,2.22
2023-03-06T07:05:16.060Z,6.05
2023-03-06T07:07:42.621Z,1.70
2023-03-06T07:10:12.687Z,1.73
2023-03-06T07:12:39.274Z,1.27
2023-03-06T07:15:06.373Z,1.58
2023-03-06T07:17:32.770Z,3.03
2023-03-06T07:19:59.611Z,2.63
2023-03-06T07:22:26.147Z,0.93
2023-03-06T07:24:52.663Z,4.53
2023-03-06T07:27:19.014Z,2.17
2023-03-06T07:29:45.446Z,0.70
2023-03-06T07:32:12.237Z,2.80
2023-03-06T07:34:38.607Z,3.10
2023-03-06T07:37:05.013Z,2.90
2023-03-06T07:39:31.442Z,2.05
2023-03-06T07:41:58.684Z,2.25
2023-03-06T07:44:25.186Z,0.80
2023-03-06T07:46:51.603Z,1.38
2023-03-06T07:49:18.067Z,2.30
2023-03-06T07:51:45.062Z,1.50
2023-03-06T07:54:11.496Z,1.98
2023-03-06T07:56:37.904Z,2.25
2023-03-06T07:59:04.368Z,1.85
2023-03-06T08:01:30.821Z,2.53
2023-03-06T08:03:57.786Z,2.92
2023-03-06T08:06:25.332Z,1.45
2023-03-06T08:08:53.133Z,2.20
2023-03-06T08:11:21.021Z,3.05
2023-03-06T08:13:48.865Z,1.70
2023-03-06T08:16:15.822Z,1.70
2023-03-06T08:18:43.730Z,2.10
2023-03-06T08:21:12.900Z,1.27
2023-03-06T08:23:39.749Z,1.20
2023-03-06T08:26:07.376Z,2.25
2023-03-06T08:28:33.846Z,2.55
2023-03-06T08:31:07.158Z,2.55
2023-03-06T08:33:33.678Z,1.80
2023-03-06T08:36:01.394Z,5.25
2023-03-06T08:38:28.738Z,1.80
2023-03-06T08:40:55.114Z,1.70
2023-03-06T08:43:21.467Z,0.80
2023-03-06T08:45:57.730Z,2.33
2023-03-06T08:48:24.724Z,1.02
2023-03-06T08:50:51.431Z,0.70
2023-03-06T08:53:17.827Z,2.15
2023-03-06T08:55:44.448Z,2.28
2023-03-06T08:58:11.050Z,0.85
2023-03-06T09:00:38.110Z,1.15
2023-03-06T09:03:04.787Z,0.93
2023-03-06T09:05:31.260Z,6.13
2023-03-06T09:07:57.697Z,0.70
2023-03-06T09:10:25.452Z,1.58
2023-03-06T09:12:54.447Z,3.75
2023-03-06T09:15:21.613Z,0.60
2023-03-06T09:17:48.148Z,2.15
2023-03-06T09:20:14.717Z,2.83
2023-03-06T09:22:42.614Z,0.98
2023-03-06T09:25:10.125Z,2.10
2023-03-06T09:27:36.600Z,0.85
2023-03-06T09:30:03.242Z,2.25
2023-03-06T09:32:29.810Z,1.45
2023-03-06T09:34:56.172Z,2.05
2023-03-06T09:37:22.773Z,1.48
2023-03-06T09:39:49.230Z,2.85
2023-03-06T09:42:18.251Z,2.10
2023-03-06T09:44:47.484Z,1.10
2023-03-06T09:47:32.148Z,1.67
2023-03-06T09:50:09.835Z,1.33
2023-03-06T09:52:36.284Z,2.30
2023-03-06T09:55:02.759Z,3.83
2023-03-06T09:57:32.245Z,4.20
2023-03-06T10:02:24.992Z,3.85
2023-03-06T10:04:56.159Z,3.80
2023-03-06T10:07:24.062Z,4.03
2023-03-06T10:09:56.493Z,2.42
2023-03-06T10:12:24.783Z,4.13
2023-03-06T10:14:57.929Z,2.42
2023-03-06T10:17:26.136Z,7.07
2023-03-06T10:19:52.694Z,6.53
2023-03-06T10:22:28.397Z,2.65
2023-03-06T10:24:58.854Z,3.40
2023-03-06T10:27:37.645Z,6.88
2023-03-06T10:30:22.909Z,1.95
2023-03-06T10:33:00.268Z,7.43
2023-03-06T10:35:30.663Z,3.65
2023-03-06T10:38:15.944Z,5.30
2023-03-06T10:40:59.372Z,3.63
2023-03-06T10:43:25.840Z,2.45
2023-03-06T10:45:53.282Z,2.45
2023-03-06T10:48:21.197Z,6.15
2023-03-06T10:50:47.757Z,2.40
2023-03-06T10:53:22.849Z,3.70
2023-03-06T10:55:59.473Z,2.50
2023-03-06T10:58:27.506Z,3.92
2023-03-06T11:01:06.777Z,1.70
2023-03-06T11:03:34.468Z,2.65
2023-03-06T11:06:03.010Z,3.47
2023-03-06T11:08:29.798Z,3.00
2023-03-06T11:10:57.459Z,1.75
2023-03-06T11:13:24.989Z,1.95
2023-03-06T11:15:56.228Z,1.05
2023-03-06T11:18:42.934Z,4.15
2023-03-06T11:21:31.394Z,2.72
2023-03-06T11:24:02.598Z,1.73
2023-03-06T11:26:31.801Z,3.17
2023-03-06T11:29:17.109Z,1.38
2023-03-06T11:31:48.200Z,4.13
2023-03-06T11:34:20.063Z,2.40
2023-03-06T11:37:10.311Z,2.67
2023-03-06T11:39:47.940Z,3.35
2023-03-06T11:42:25.779Z,2.17
2023-03-06T11:44:52.165Z,4.78
2023-03-06T11:47:23.561Z,1.30
2023-03-06T11:50:08.975Z,1.05
2023-03-06T11:52:41.290Z,1.85
2023-03-06T11:55:08.999Z,7.60
2023-03-06T11:57:39.740Z,2.33
2023-03-06T12:00:15.114Z,1.60
2023-03-06T12:03:01.347Z,2.55
2023-03-06T12:05:47.094Z,1.50
2023-03-06T12:08:25.087Z,1.23
2023-03-06T12:10:54.499Z,2.42
2023-03-06T12:15:47.167Z,2.08
2023-03-06T12:18:13.587Z,2.08
2023-03-06T12:20:51.901Z,3.00
2023-03-06T12:23:28.075Z,2.42
2023-03-06T12:26:13.014Z,1.17
2023-03-06T12:28:39.577Z,4.57
2023-03-06T12:31:05.935Z,5.20
2023-03-06T12:33:45.897Z,1.75
2023-03-06T12:36:31.146Z,3.30
2023-03-06T12:38:57.597Z,2.40
2023-03-06T12:41:43.041Z,4.70
2023-03-06T12:44:22.651Z,3.05
2023-03-06T12:46:56.305Z,2.22
2023-03-06T12:49:31.414Z,2.17
2023-03-06T12:51:59.633Z,2.30
2023-03-06T12:54:28.347Z,9.05
2023-03-06T12:56:55.323Z,3.67
2023-03-06T12:59:39.060Z,2.00
2023-03-06T13:02:18.086Z,4.10
2023-03-06T13:07:19.708Z,2.83
2023-03-06T13:10:06.819Z,5.40
2023-03-06T13:12:36.223Z,3.63
2023-03-06T13:15:20.991Z,5.15
2023-03-06T13:17:47.420Z,3.15
2023-03-06T13:20:13.916Z,3.55
2023-03-06T13:22:41.013Z,1.60
2023-03-06T13:25:19.548Z,3.42
2023-03-06T13:27:54.941Z,1.17
2023-03-06T13:30:27.205Z,1.58
2023-03-06T13:32:54.231Z,3.53
2023-03-06T13:35:29.990Z,2.50
2023-03-06T13:37:57.233Z,1.40
2023-03-06T13:40:34.521Z,3.40
2023-03-06T13:43:07.043Z,2.05
2023-03-06T13:45:36.088Z,5.38
2023-03-06T13:50:49.446Z,1.98
2023-03-06T13:53:34.712Z,8.55
2023-03-06T13:56:19.923Z,2.72
2023-03-06T13:58:49.333Z,3.75
2023-03-06T14:01:33.557Z,2.90
2023-03-06T14:04:05.707Z,1.70
2023-03-06T14:06:35.086Z,2.33
2023-03-06T14:09:03.878Z,2.00
2023-03-06T14:11:30.517Z,3.17
2023-03-06T14:13:57.343Z,4.55
2023-03-06T14:16:40.505Z,6.43
2023-03-06T14:19:16.109Z,12.88
2023-03-06T14:21:47.695Z,6.57
2023-03-06T14:24:18.857Z,5.03
2023-03-06T14:26:47.054Z,3.08
2023-03-06T14:29:24.020Z,7.75
2023-03-06T14:31:51.698Z,2.15
2023-03-06T14:34:21.233Z,2.60
2023-03-06T14:36:49.151Z,3.30
2023-03-06T14:39:20.046Z,3.03
2023-03-06T14:41:46.429Z,2.97
2023-03-06T14:44:20.612Z,2.33
2023-03-06T14:46:48.420Z,3.72
2023-03-06T14:49:15.391Z,2.88
2023-03-06T14:51:43.327Z,2.75
2023-03-06T14:54:14.398Z,2.50
2023-03-06T14:56:42.997Z,8.65
2023-03-06T14:59:12.248Z,5.63
2023-03-06T15:04:28.373Z,4.35
2023-03-06T15:06:56.065Z,4.88
2023-03-06T15:09:30.341Z,3.33
2023-03-06T15:12:00.939Z,9.40
2023-03-06T15:14:30.496Z,3.63
2023-03-06T15:16:56.870Z,3.95
2023-03-06T15:19:23.338Z,3.65
2023-03-06T15:21:51.797Z,1.85
2023-03-06T15:24:32.886Z,7.78
2023-03-06T15:27:02.359Z,3.97
2023-03-06T15:29:28.973Z,2.15
2023-03-06T15:32:13.072Z,3.10
2023-03-06T15:34:39.635Z,2.38
2023-03-06T15:37:24.695Z,4.35
2023-03-06T15:40:06.528Z,2.45
2023-03-06T15:42:34.239Z,1.92
2023-03-06T15:45:03.304Z,2.58
2023-03-06T15:47:29.717Z,1.27
2023-03-06T15:49:56.936Z,5.60
2023-03-06T15:52:23.357Z,1.58
2023-03-06T15:54:49.954Z,1.67
2023-03-06T15:57:22.157Z,2.75
2023-03-06T15:59:48.761Z,2.85
2023-03-06T16:02:19.282Z,1.35
2023-03-06T16:04:45.813Z,4.32
2023-03-06T16:07:12.617Z,4.72
2023-03-06T16:09:39.847Z,2.00
2023-03-06T16:12:06.633Z,3.90
2023-03-06T16:14:33.023Z,2.53
2023-03-06T16:16:59.621Z,2.20
2023-03-06T16:19:27.788Z,2.63
2023-03-06T16:21:54.843Z,4.03
2023-03-06T16:24:21.504Z,4.75
2023-03-06T16:26:50.804Z,3.22
2023-03-06T16:29:25.063Z,2.00
2023-03-06T16:31:51.904Z,1.25
2023-03-06T16:34:21.218Z,2.78
2023-03-06T16:36:48.457Z,7.97
2023-03-06T16:39:15.828Z,1.48
2023-03-06T16:41:42.461Z,2.75
2023-03-06T16:44:10.246Z,2.20
2023-03-06T16:46:41.404Z,2.30
2023-03-06T16:49:07.866Z,1.30
2023-03-06T16:51:34.346Z,2.28
2023-03-06T16:54:00.785Z,4.10
2023-03-06T16:56:27.186Z,3.42
2023-03-06T16:58:53.658Z,8.20
2023-03-06T17:01:20.308Z,2.30
2023-03-06T17:03:46.776Z,4.38
2023-03-06T17:06:13.959Z,1.33
2023-03-06T17:08:40.419Z,2.35
2023-03-06T17:11:07.205Z,2.28
2023-03-06T17:13:33.703Z,5.28
2023-03-06T17:16:02.005Z,3.85
2023-03-06T17:18:29.217Z,2.55
2023-03-06T17:20:55.781Z,8.90
2023-03-06T17:23:25.986Z,4.80
2023-03-06T17:25:52.934Z,7.78
2023-03-06T17:28:19.328Z,6.05
2023-03-06T17:30:45.764Z,3.50
2023-03-06T17:33:12.182Z,3.10
2023-03-06T17:35:38.620Z,4.50
2023-03-06T17:38:05.061Z,3.50
2023-03-06T17:40:33.237Z,2.40
2023-03-06T17:42:59.602Z,3.17
2023-03-06T17:45:28.970Z,6.18
2023-03-06T17:47:55.873Z,5.10
2023-03-06T17:50:22.345Z,3.42
2023-03-06T17:52:48.862Z,4.22
2023-03-06T17:55:15.258Z,5.50
2023-03-06T17:57:41.723Z,3.15
2023-03-06T18:00:08.504Z,4.25
2023-03-06T18:02:34.932Z,3.33
2023-03-06T18:05:01.370Z,3.08
2023-03-06T18:07:27.881Z,4.00
2023-03-06T18:09:54.398Z,3.95
2023-03-06T18:12:20.768Z,4.50
2023-03-06T18:14:48.652Z,3.83
2023-03-06T18:17:15.052Z,2.80
2023-03-06T18:19:41.525Z,6.57
2023-03-06T18:22:10.248Z,4.10
2023-03-06T18:24:36.677Z,7.95
2023-03-06T18:27:03.135Z,9.18
2023-03-06T18:29:29.572Z,14.80
2023-03-06T18:31:56.859Z,14.85
2023-03-06T18:34:23.468Z,26.58
2023-03-06T18:36:51.709Z,19.80
2023-03-06T18:39:18.693Z,12.77
2023-03-06T18:41:45.060Z,8.32
2023-03-06T18:44:13.597Z,7.78
2023-03-06T18:46:40.057Z,5.80
2023-03-06T18:49:06.646Z,4.47
2023-03-06T18:51:33.523Z,4.15
2023-03-06T18:54:00.919Z,6.90
2023-03-06T18:56:27.456Z,5.55
2023-03-06T18:58:53.948Z,6.78
2023-03-06T19:01:21.147Z,4.47
2023-03-06T19:03:48.015Z,6.63
2023-03-06T19:06:15.650Z,11.30
2023-03-06T19:08:42.925Z,9.40
2023-03-06T19:11:13.751Z,11.38
2023-03-06T19:13:40.412Z,8.32
2023-03-06T19:16:07.415Z,9.85
2023-03-06T19:18:34.038Z,15.00
2023-03-06T19:21:14.325Z,18.48
2023-03-06T19:23:40.994Z,24.48
2023-03-06T19:26:07.582Z,27.45
2023-03-06T19:28:35.273Z,21.38
2023-03-06T19:31:07.445Z,21.70
2023-03-06T19:33:36.274Z,20.15
2023-03-06T19:36:03.093Z,15.10
2023-03-06T19:38:29.526Z,14.88
2023-03-06T19:40:55.988Z,14.00
2023-03-06T19:43:24.051Z,10.57
2023-03-06T19:45:50.498Z,12.88
2023-03-06T19:48:17.855Z,9.27
2023-03-06T19:50:44.319Z,5.72
2023-03-06T19:53:13.795Z,6.22
2023-03-06T19:55:40.267Z,4.90
2023-03-06T19:58:06.647Z,2.70
2023-03-06T20:00:33.206Z,6.35
2023-03-06T20:02:59.656Z,4.50
2023-03-06T20:05:26.202Z,4.75
2023-03-06T20:07:52.620Z,5.78
2023-03-06T20:10:19.269Z,5.07
2023-03-06T20:12:45.899Z,3.85
2023-03-06T20:15:13.021Z,3.95
2023-03-06T20:17:42.424Z,6.22
2023-03-06T20:22:35.572Z,5.65
2023-03-06T20:25:02.821Z,3.92
2023-03-06T20:27:29.247Z,4.15
2023-03-06T20:29:55.670Z,5.57
2023-03-06T20:32:22.690Z,6.75
2023-03-06T20:34:49.086Z,4.47
2023-03-06T20:37:15.740Z,6.03
2023-03-06T20:39:42.109Z,7.15
2023-03-06T20:42:08.503Z,12.80
2023-03-06T20:44:34.834Z,9.85
2023-03-06T20:47:01.420Z,11.32
2023-03-06T20:49:28.549Z,15.15
2023-03-06T20:51:56.041Z,12.02
2023-03-06T20:54:22.828Z,14.75
2023-03-06T20:56:50.144Z,12.60
2023-03-06T20:59:17.020Z,14.40
2023-03-06T21:01:44.816Z,9.30
2023-03-06T21:04:13.827Z,7.43
2023-03-06T21:06:42.007Z,11.48
2023-03-06T21:09:08.415Z,4.75
2023-03-06T21:11:35.358Z,5.18
2023-03-06T21:14:01.796Z,4.10
2023-03-06T21:16:28.332Z,3.65
2023-03-06T21:18:55.095Z,5.25
2023-03-06T21:21:23.090Z,7.18
2023-03-06T21:23:49.931Z,4.38
2023-03-06T21:26:23.496Z,4.00
2023-03-06T21:28:50.399Z,5.80
2023-03-06T21:31:18.258Z,2.90
2023-03-06T21:33:44.930Z,5.50
2023-03-06T21:36:11.485Z,6.05
2023-03-06T21:38:37.871Z,5.28
2023-03-06T21:41:11.625Z,8.25
2023-03-06T21:43:38.142Z,6.70
2023-03-06T21:46:04.679Z,3.58
2023-03-06T21:48:31.254Z,6.47
2023-03-06T21:51:07.826Z,5.40
2023-03-06T21:53:34.366Z,3.13
2023-03-06T21:56:04.147Z,5.65
2023-03-06T21:58:30.898Z,4.50
2023-03-06T22:00:57.504Z,4.63
2023-03-06T22:03:24.245Z,5.30
2023-03-06T22:05:52.071Z,4.10
2023-03-06T22:08:21.362Z,5.32
2023-03-06T22:10:49.142Z,3.88
2023-03-06T22:13:15.694Z,4.90
2023-03-06T22:15:52.056Z,4.97
2023-03-06T22:18:18.775Z,4.63
2023-03-06T22:20:45.263Z,3.03
2023-03-06T22:23:12.204Z,3.08
2023-03-06T22:25:38.549Z,6.05
2023-03-06T22:28:04.993Z,3.80
2023-03-06T22:30:31.442Z,5.60
2023-03-06T22:32:57.944Z,3.78
2023-03-06T22:35:24.412Z,5.55
2023-03-06T22:37:50.814Z,3.03
2023-03-06T22:40:17.305Z,4.70
2023-03-06T22:42:43.687Z,4.35
2023-03-06T22:45:10.352Z,2.88
2023-03-06T22:47:37.014Z,4.63
2023-03-06T22:50:03.712Z,5.63
2023-03-06T22:52:30.157Z,3.85
2023-03-06T22:54:56.630Z,4.05
2023-03-06T22:57:23.086Z,4.80
2023-03-06T22:59:49.482Z,5.72
2023-03-06T23:02:15.871Z,5.72
2023-03-06T23:04:42.253Z,3.58
2023-03-06T23:07:08.646Z,4.07
2023-03-06T23:09:35.039Z,4.80
2023-03-06T23:12:01.423Z,4.45
2023-03-06T23:14:27.942Z,4.10
2023-03-06T23:16:54.420Z,4.63
2023-03-06T23:19:20.823Z,3.05
2023-03-06T23:21:47.348Z,2.97
2023-03-06T23:24:13.818Z,3.58
2023-03-06T23:26:40.707Z,3.08
2023-03-06T23:29:07.107Z,2.88
2023-03-06T23:31:33.516Z,3.90
2023-03-06T23:34:03.114Z,2.75
2023-03-06T23:36:30.309Z,3.55
2023-03-06T23:38:56.961Z,3.40
2023-03-06T23:41:23.738Z,3.28
2023-03-06T23:43:50.496Z,4.32
2023-03-06T23:46:17.036Z,3.22
2023-03-06T23:48:44.349Z,2.53
2023-03-06T23:51:20.554Z,3.63
2023-03-06T23:53:47.513Z,1.45
2023-03-06T23:56:14.203Z,7.28
2023-03-06T23:58:41.203Z,2.25
